Time;durP1;ratioP1;P1;durP2;ratioP2;P2;SDS_P1;SDS_P2;PMS_P1;PMS_P2;Temp;Humidity;BMP_temperature;BMP_pressure;BME280_temperature;BME280_humidity;BME280_pressure;Samples;Min_cycle;Max_cycle;Signal;HPM_P1;HPM_P2
2022/07/12 00:00:50;;;;;;;;;;;;;;;21.13;29.03;98058.59;4998040;28;740;-82
2022/07/12 00:03:15;;;;;;;;;;;;;;;21.04;29.22;98068.50;4998110;28;775;-83
2022/07/12 00:05:41;;;;;;;;;;;;;;;21.10;29.23;98071.59;4997845;28;936;-82
2022/07/12 00:08:06;;;;;;;;;;;;;;;21.04;29.29;98067.72;4997976;28;893;-82
2022/07/12 00:10:32;;;;;;;;;;;;;;;20.99;29.37;98071.84;4996718;28;894;-83
2022/07/12 00:12:57;;;;;;;;;;;;;;;21.21;29.13;98066.47;4997699;28;1910;-82
2022/07/12 00:15:23;;;;;;;;;;;;;;;21.32;28.94;98072.69;5029406;28;954;-81
2022/07/12 00:17:48;;;;;;;;;;;;;;;21.27;28.99;98056.22;4998001;28;800;-82
2022/07/12 00:20:14;;;;;;;;;;;;;;;20.89;29.80;98066.44;5054378;28;939;-82
2022/07/12 00:22:39;;;;;;;;;;;;;;;21.40;29.40;98067.69;5054746;28;958;-83
2022/07/12 00:25:05;;;;;;;;;;;;;;;21.52;29.13;98063.34;5054552;28;899;-83
2022/07/12 00:27:30;;;;;;;;;;;;;;;21.39;29.28;98065.28;5054468;28;901;-82
2022/07/12 00:29:56;;;;;;;;;;;;;;;21.22;29.86;98062.41;5054226;28;889;-82
2022/07/12 00:32:21;;;;;;;;;;;;;;;21.30;29.65;98069.53;5054211;28;1988;-82
2022/07/12 00:34:47;;;;;;;;;;;;;;;21.51;29.16;98061.75;5037336;28;957;-82
2022/07/12 00:37:12;;;;;;;;;;;;;;;21.38;29.29;98063.69;5054144;28;936;-82
2022/07/12 00:39:38;;;;;;;;;;;;;;;21.25;29.79;98060.75;5034196;28;936;-83
2022/07/12 00:42:03;;;;;;;;;;;;;;;21.16;29.69;98063.38;5017951;28;943;-81
2022/07/12 00:44:30;;;;;;;;;;;;;;;20.88;30.03;98059.16;5017596;28;1068;-82
2022/07/12 00:46:58;;;;;;;;;;;;;;;21.01;30.18;98060.09;5013915;28;1092;-82
2022/07/12 00:49:24;;;;;;;;;;;;;;;21.10;29.89;98057.44;4997808;28;870;-81
2022/07/12 00:51:50;;;;;;;;;;;;;;;21.38;29.41;98058.03;4985007;28;1971;-82
2022/07/12 00:54:16;;;;;;;;;;;;;;;21.72;28.79;98055.53;4959249;28;1595;-81
2022/07/12 00:56:41;;;;;;;;;;;;;;;21.70;29.20;98058.00;4975584;28;823;-82
2022/07/12 00:59:07;;;;;;;;;;;;;;;21.44;29.31;98057.03;4975181;28;919;-82
2022/07/12 01:01:32;;;;;;;;;;;;;;;21.46;29.41;98053.78;4991980;28;958;-82
2022/07/12 01:03:58;;;;;;;;;;;;;;;21.50;29.33;98060.13;4975030;28;1004;-80
2022/07/12 01:06:24;;;;;;;;;;;;;;;21.37;29.21;98053.59;4959435;28;894;-83
2022/07/12 01:08:49;;;;;;;;;;;;;;;21.15;29.83;98053.31;4975429;28;906;-82
2022/07/12 01:11:15;;;;;;;;;;;;;;;21.14;29.97;98061.00;4975758;28;949;-82
2022/07/12 01:13:40;;;;;;;;;;;;;;;21.05;30.03;98064.44;4991081;28;1910;-82
2022/07/12 01:16:06;;;;;;;;;;;;;;;20.99;29.93;98059.75;4991517;28;997;-82
2022/07/12 01:18:32;;;;;;;;;;;;;;;21.00;29.79;98055.66;5009624;28;1522;-82
2022/07/12 01:20:57;;;;;;;;;;;;;;;21.19;29.53;98066.13;4994286;28;966;-82
2022/07/12 01:23:23;;;;;;;;;;;;;;;21.27;29.67;98053.38;4995110;28;817;-82
2022/07/12 01:25:48;;;;;;;;;;;;;;;21.23;29.43;98058.34;4994397;28;977;-82
2022/07/12 01:28:13;;;;;;;;;;;;;;;21.10;29.61;98054.63;4994355;28;882;-82
2022/07/12 01:30:40;;;;;;;;;;;;;;;21.20;29.42;98050.75;4978426;28;924;-82
2022/07/12 01:33:05;;;;;;;;;;;;;;;21.26;29.26;98060.28;4978207;28;1926;-82
2022/07/12 01:35:31;;;;;;;;;;;;;;;21.07;29.52;98049.84;4978267;28;967;-82
2022/07/12 01:37:56;;;;;;;;;;;;;;;20.94;30.01;98057.44;4994817;28;972;-82
2022/07/12 01:40:22;;;;;;;;;;;;;;;20.92;29.73;98054.22;4994690;28;896;-82
2022/07/12 01:42:47;;;;;;;;;;;;;;;21.44;29.57;98059.06;4994594;28;1141;-82
2022/07/12 01:45:13;;;;;;;;;;;;;;;21.81;28.85;98054.88;5010484;28;854;-82
2022/07/12 01:47:38;;;;;;;;;;;;;;;21.64;28.95;98054.09;4994233;28;1058;-82
2022/07/12 01:50:05;;;;;;;;;;;;;;;21.30;29.66;98058.22;4994680;28;790;-82
2022/07/12 01:52:30;;;;;;;;;;;;;;;21.19;29.55;98063.31;5022281;28;1905;-82
2022/07/12 01:54:56;;;;;;;;;;;;;;;21.22;29.56;98062.41;5013778;28;850;-82
2022/07/12 01:57:21;;;;;;;;;;;;;;;21.11;29.61;98063.91;5030415;28;1045;-82
2022/07/12 01:59:47;;;;;;;;;;;;;;;21.22;29.43;98062.41;5013829;28;833;-82
2022/07/12 02:02:12;;;;;;;;;;;;;;;21.12;29.54;98057.81;5031746;28;816;-82
2022/07/12 02:04:37;;;;;;;;;;;;;;;20.95;29.70;98053.38;5017205;28;905;-82
2022/07/12 02:07:03;;;;;;;;;;;;;;;21.06;29.53;98059.56;5017308;28;973;-81
2022/07/12 02:09:29;;;;;;;;;;;;;;;21.11;29.52;98061.88;5036750;28;923;-81
2022/07/12 02:11:54;;;;;;;;;;;;;;;21.16;29.42;98061.34;5036825;28;1914;-81
2022/07/12 02:14:20;;;;;;;;;;;;;;;21.37;29.24;98062.09;5037113;28;1060;-81
2022/07/12 02:16:46;;;;;;;;;;;;;;;21.63;28.86;98058.19;5037246;28;939;-80
2022/07/12 02:19:12;;;;;;;;;;;;;;;21.50;29.06;98060.97;5020173;28;968;-80
2022/07/12 02:21:37;;;;;;;;;;;;;;;21.33;29.09;98062.97;5019981;28;932;-80
2022/07/12 02:24:03;;;;;;;;;;;;;;;21.27;29.13;98059.06;5020618;28;885;-81
2022/07/12 02:26:28;;;;;;;;;;;;;;;21.17;29.42;98057.28;5020204;28;1582;-81
2022/07/12 02:28:54;;;;;;;;;;;;;;;21.36;28.90;98061.31;5036546;28;1021;-81
2022/07/12 02:31:19;;;;;;;;;;;;;;;21.31;28.96;98062.63;5036410;28;918;-81
2022/07/12 02:33:45;;;;;;;;;;;;;;;21.26;29.03;98065.94;5019463;28;2101;-81
2022/07/12 02:36:10;;;;;;;;;;;;;;;21.25;29.07;98072.84;5036349;28;921;-81
2022/07/12 02:38:36;;;;;;;;;;;;;;;20.91;29.72;98072.44;5036434;28;807;-81
2022/07/12 02:41:01;;;;;;;;;;;;;;;21.14;29.14;98072.31;5036140;28;993;-80
2022/07/12 02:43:27;;;;;;;;;;;;;;;21.12;29.11;98074.78;5035962;28;898;-81
2022/07/12 02:45:53;;;;;;;;;;;;;;;21.73;28.34;98071.28;5033463;28;937;-81
2022/07/12 02:48:19;;;;;;;;;;;;;;;21.78;28.38;98070.75;4998818;28;1298;-79
2022/07/12 02:50:44;;;;;;;;;;;;;;;21.44;28.64;98067.56;4998934;28;828;-80
2022/07/12 02:53:10;;;;;;;;;;;;;;;21.15;29.10;98073.91;5012539;28;1910;-80
2022/07/12 02:55:36;;;;;;;;;;;;;;;21.23;28.92;98071.69;4996629;28;910;-81
2022/07/12 02:58:01;;;;;;;;;;;;;;;21.12;29.16;98069.13;5013480;28;922;-81
2022/07/12 03:00:28;;;;;;;;;;;;;;;21.18;29.04;98073.00;4996360;28;900;-81
2022/07/12 03:02:54;;;;;;;;;;;;;;;21.29;29.11;98073.53;4996283;28;902;-81
2022/07/12 03:05:19;;;;;;;;;;;;;;;21.10;29.52;98076.47;4996604;28;918;-80
2022/07/12 03:07:45;;;;;;;;;;;;;;;21.19;29.13;98073.81;4996519;28;887;-81
2022/07/12 03:10:10;;;;;;;;;;;;;;;21.21;29.42;98077.81;5012622;28;884;-80
2022/07/12 03:12:36;;;;;;;;;;;;;;;21.22;29.12;98079.38;4996159;28;1903;-81
2022/07/12 03:15:02;;;;;;;;;;;;;;;21.18;29.06;98078.66;5013130;28;763;-81
2022/07/12 03:17:27;;;;;;;;;;;;;;;21.28;29.07;98083.28;4996118;28;954;-80
2022/07/12 03:19:52;;;;;;;;;;;;;;;21.55;29.04;98087.91;4995964;28;933;-80
2022/07/12 03:22:18;;;;;;;;;;;;;;;21.65;28.76;98083.22;5012102;28;921;-80
2022/07/12 03:24:43;;;;;;;;;;;;;;;21.65;28.45;98084.00;4996573;28;932;-80
2022/07/12 03:27:09;;;;;;;;;;;;;;;21.43;28.91;98082.97;4996135;28;899;-81
2022/07/12 03:29:35;;;;;;;;;;;;;;;21.29;28.99;98093.34;4995942;28;939;-81
2022/07/12 03:32:00;;;;;;;;;;;;;;;21.44;28.65;98093.03;5012252;28;1969;-80
2022/07/12 03:34:26;;;;;;;;;;;;;;;21.39;28.89;98083.03;4995967;28;866;-81
2022/07/12 03:36:52;;;;;;;;;;;;;;;21.19;29.16;98082.28;4995630;28;1018;-80
2022/07/12 03:39:17;;;;;;;;;;;;;;;21.10;29.38;98088.56;4996071;28;937;-79
2022/07/12 03:41:43;;;;;;;;;;;;;;;21.08;29.49;98091.03;5028472;28;958;-81
2022/07/12 03:44:08;;;;;;;;;;;;;;;21.24;29.13;98088.25;4996263;28;990;-80
2022/07/12 03:46:33;;;;;;;;;;;;;;;21.16;29.41;98086.00;4995881;28;870;-80
2022/07/12 03:48:59;;;;;;;;;;;;;;;21.22;29.04;98090.72;4995564;28;1245;-80
2022/07/12 03:51:25;;;;;;;;;;;;;;;21.06;29.26;98087.84;4995485;28;842;-81
2022/07/12 03:53:50;;;;;;;;;;;;;;;21.22;29.04;98090.72;4995322;28;1991;-81
2022/07/12 03:59:01;;;;;;;;;;;;;;;21.47;28.89;98095.00;4995544;28;1294;-81
2022/07/12 04:01:27;;;;;;;;;;;;;;;21.47;28.68;98095.81;4995202;28;960;-80
2022/07/12 04:03:52;;;;;;;;;;;;;;;21.30;28.96;98092.16;4956106;29;1676;-80
2022/07/12 04:06:18;;;;;;;;;;;;;;;21.39;29.00;98090.75;4975572;28;907;-80
2022/07/12 04:08:43;;;;;;;;;;;;;;;21.24;29.08;98088.25;4975811;28;959;-80
2022/07/12 04:11:09;;;;;;;;;;;;;;;21.29;29.16;98090.53;4976031;28;941;-80
2022/07/12 04:13:34;;;;;;;;;;;;;;;21.14;29.42;98094.97;4975439;28;1910;-80
2022/07/12 04:16:00;;;;;;;;;;;;;;;21.25;29.19;98095.50;4975750;28;911;-80
2022/07/12 04:18:25;;;;;;;;;;;;;;;21.22;29.26;98096.38;4959495;28;1270;-80
2022/07/12 04:20:51;;;;;;;;;;;;;;;21.09;29.27;98109.63;4975788;28;905;-80
2022/07/12 04:23:16;;;;;;;;;;;;;;;21.23;28.98;98103.59;4975772;28;885;-80
2022/07/12 04:25:41;;;;;;;;;;;;;;;21.06;29.34;98099.16;4974727;28;991;-80
2022/07/12 04:28:07;;;;;;;;;;;;;;;21.22;28.98;98110.50;4975509;28;884;-80
2022/07/12 04:30:33;;;;;;;;;;;;;;;21.04;29.28;98108.09;4959696;28;978;-80
2022/07/12 04:32:58;;;;;;;;;;;;;;;21.53;28.75;98115.88;4955770;29;1907;-80
2022/07/12 04:35:24;;;;;;;;;;;;;;;21.77;28.28;98117.31;4987929;28;1350;-80
2022/07/12 04:37:49;;;;;;;;;;;;;;;21.63;28.42;98109.16;5014579;28;956;-81
2022/07/12 04:40:14;;;;;;;;;;;;;;;21.66;28.58;98115.97;5013620;28;1157;-81
2022/07/12 04:42:40;;;;;;;;;;;;;;;21.40;28.74;98114.97;5012571;28;891;-80
2022/07/12 04:45:06;;;;;;;;;;;;;;;21.42;28.67;98121.81;5007875;28;1085;-80
2022/07/12 04:47:31;;;;;;;;;;;;;;;21.49;28.82;98120.81;5022408;28;1293;-80
2022/07/12 04:49:57;;;;;;;;;;;;;;;21.24;29.25;98119.38;5039852;28;1448;-81
2022/07/12 04:52:22;;;;;;;;;;;;;;;21.17;29.45;98116.69;5013498;28;1906;-81
2022/07/12 04:54:48;;;;;;;;;;;;;;;21.14;29.36;98117.59;5014301;28;1214;-80
2022/07/12 04:57:13;;;;;;;;;;;;;;;21.18;29.02;98112.63;5014272;28;972;-81
2022/07/12 04:59:39;;;;;;;;;;;;;;;21.09;29.21;98115.28;4977943;28;987;-80
2022/07/12 05:02:04;;;;;;;;;;;;;;;20.99;29.64;98111.44;4994519;28;909;-80
2022/07/12 05:04:33;;;;;;;;;;;;;;;21.03;29.36;98122.66;4994174;28;1208;-80
2022/07/12 05:06:59;;;;;;;;;;;;;;;21.04;29.20;98118.63;4994408;28;985;-79
2022/07/12 05:09:24;;;;;;;;;;;;;;;21.08;29.15;98119.31;4992706;28;897;-80
2022/07/12 05:11:49;;;;;;;;;;;;;;;21.22;28.87;98124.66;4974972;28;1973;-80
2022/07/12 05:14:15;;;;;;;;;;;;;;;21.42;29.00;98121.00;4991299;28;934;-80
2022/07/12 05:16:40;;;;;;;;;;;;;;;21.55;28.67;98119.06;4974745;28;1040;-81
2022/07/12 05:19:06;;;;;;;;;;;;;;;21.66;28.67;98118.78;4974887;28;858;-80
2022/07/12 05:21:33;;;;;;;;;;;;;;;21.58;28.50;98118.19;4974782;28;951;-80
2022/07/12 05:23:59;;;;;;;;;;;;;;;21.50;28.95;98128.91;4974661;28;941;-80
2022/07/12 05:26:24;;;;;;;;;;;;;;;21.39;28.83;98121.88;4974838;28;956;-80
2022/07/12 05:28:50;;;;;;;;;;;;;;;21.24;28.90;98125.03;5013763;28;1204;-80
2022/07/12 05:31:15;;;;;;;;;;;;;;;21.22;29.11;98127.50;5013512;28;905;-80
2022/07/12 05:33:41;;;;;;;;;;;;;;;21.24;29.06;98122.22;5013549;28;1938;-80
2022/07/12 05:36:06;;;;;;;;;;;;;;;21.25;29.00;98134.31;5013930;28;943;-80
2022/07/12 05:38:32;;;;;;;;;;;;;;;21.39;29.00;98124.72;5017567;28;911;-79
2022/07/12 05:40:57;;;;;;;;;;;;;;;21.31;29.25;98136.22;5017322;28;995;-80
2022/07/12 05:43:22;;;;;;;;;;;;;;;21.12;29.37;98125.69;5000254;28;1057;-80
2022/07/12 05:45:48;;;;;;;;;;;;;;;21.09;29.59;98132.25;5016658;28;1247;-80
2022/07/12 05:53:59;;;;;;;;;;;;;;;21.95;30.03;98130.19;4882875;29;1978;-78
2022/07/12 05:56:24;;;;;;;;;;;;;;;21.80;30.40;98133.41;4883883;29;897;-79
2022/07/12 05:58:50;;;;;;;;;;;;;;;21.63;30.45;98131.03;4883810;29;982;-78
2022/07/12 06:01:16;;;;;;;;;;;;;;;21.58;30.78;98126.69;4846356;29;972;-78
2022/07/12 06:03:42;;;;;;;;;;;;;;;22.42;29.74;98135.44;5055663;23;3991;-78
2022/07/12 06:06:07;;;;;;;;;;;;;;;22.20;30.80;98130.38;4902023;29;1022;-78
2022/07/12 06:08:33;;;;;;;;;;;;;;;21.78;31.33;98138.72;4902437;29;959;-79
2022/07/12 06:10:58;;;;;;;;;;;;;;;21.64;31.33;98139.06;4871139;29;948;-78
2022/07/12 06:13:24;;;;;;;;;;;;;;;21.56;31.24;98135.63;4883049;29;1989;-79
2022/07/12 06:15:49;;;;;;;;;;;;;;;21.77;30.74;98125.81;4883047;29;1199;-78
2022/07/12 06:18:15;;;;;;;;;;;;;;;21.53;30.74;98141.38;4864535;29;925;-78
2022/07/12 06:20:40;;;;;;;;;;;;;;;21.77;30.41;98137.13;4864485;29;980;-79
2022/07/12 06:23:06;;;;;;;;;;;;;;;21.50;30.60;98134.56;4827904;29;926;-79
2022/07/12 06:25:31;;;;;;;;;;;;;;;21.55;30.52;98136.03;4812532;29;948;-79
2022/07/12 06:28:00;;;;;;;;;;;;;;;21.38;30.17;98140.09;4827781;29;927;-79
2022/07/12 06:30:25;;;;;;;;;;;;;;;21.33;30.40;98125.25;4791434;30;831;-79
2022/07/12 06:32:50;;;;;;;;;;;;;;;21.27;30.17;98137.50;4776483;30;1907;-78
2022/07/12 06:35:16;;;;;;;;;;;;;;;21.24;30.24;98144.84;4791554;30;957;-78
2022/07/12 06:37:41;;;;;;;;;;;;;;;21.38;29.87;98137.28;4791207;30;960;-78
2022/07/12 06:40:07;;;;;;;;;;;;;;;21.12;30.20;98137.03;4791451;30;962;-78
2022/07/12 06:42:33;;;;;;;;;;;;;;;21.17;29.72;98138.53;4791227;30;1239;-77
2022/07/12 06:44:58;;;;;;;;;;;;;;;21.27;29.78;98138.28;4805012;29;920;-78
2022/07/12 06:47:23;;;;;;;;;;;;;;;21.13;29.59;98135.78;4790628;29;1277;-78
2022/07/12 06:49:49;;;;;;;;;;;;;;;21.27;29.34;98138.28;4791319;30;1099;-78
2022/07/12 06:52:14;;;;;;;;;;;;;;;21.39;29.05;98138.88;4791094;30;1903;-77
2022/07/12 06:54:40;;;;;;;;;;;;;;;21.53;28.79;98144.19;4819472;29;1022;-77
2022/07/12 06:57:06;;;;;;;;;;;;;;;21.38;29.02;98132.41;4830463;29;964;-78
2022/07/12 06:59:31;;;;;;;;;;;;;;;21.17;29.25;98133.66;4830543;29;913;-78
2022/07/12 07:01:57;;;;;;;;;;;;;;;21.36;29.01;98136.94;4845746;29;945;-77
2022/07/12 07:04:23;;;;;;;;;;;;;;;21.42;28.78;98138.00;4845288;29;1140;-77
2022/07/12 07:06:48;;;;;;;;;;;;;;;21.21;28.85;98134.41;4846556;29;1031;-77
2022/07/12 07:09:14;;;;;;;;;;;;;;;21.19;29.09;98133.22;4863853;29;918;-77
2022/07/12 07:11:40;;;;;;;;;;;;;;;21.09;28.96;98137.91;4863645;29;952;-78
2022/07/12 07:14:05;;;;;;;;;;;;;;;21.13;29.13;98129.31;4863545;29;1899;-77
2022/07/12 07:16:31;;;;;;;;;;;;;;;21.18;28.99;98138.09;4863977;29;1098;-77
2022/07/12 07:18:56;;;;;;;;;;;;;;;21.30;28.98;98140.28;4830073;29;1127;-77
2022/07/12 07:21:22;;;;;;;;;;;;;;;21.71;28.73;98133.25;4829685;29;1243;-77
2022/07/12 07:23:47;;;;;;;;;;;;;;;21.66;28.92;98130.94;4826886;29;1142;-77
2022/07/12 07:26:13;;;;;;;;;;;;;;;21.35;29.47;98132.47;4826752;29;1010;-77
2022/07/12 07:31:22;;;;;;;;;;;;;;;21.29;29.27;98130.16;4827095;29;987;-77
2022/07/12 07:33:47;;;;;;;;;;;;;;;21.37;29.07;98132.84;4826717;29;1954;-77
2022/07/12 07:36:13;;;;;;;;;;;;;;;21.33;28.78;98139.38;4843082;29;1104;-78
2022/07/12 07:38:38;;;;;;;;;;;;;;;21.29;28.82;98130.16;4790326;30;1112;-77
2022/07/12 07:41:04;;;;;;;;;;;;;;;21.21;29.09;98134.41;4808224;29;964;-79
2022/07/12 07:43:29;;;;;;;;;;;;;;;21.33;28.70;98136.56;4778779;29;925;-78
2022/07/12 07:45:56;;;;;;;;;;;;;;;21.32;28.64;98129.31;4808287;29;982;-79
2022/07/12 07:48:21;;;;;;;;;;;;;;;21.34;28.80;98134.53;4808231;29;1322;-78
2022/07/12 07:50:47;;;;;;;;;;;;;;;21.30;28.79;98143.13;4839129;29;1232;-78
2022/07/12 07:53:12;;;;;;;;;;;;;;;21.35;28.56;98132.47;4844478;29;1986;-77
2022/07/12 07:55:39;;;;;;;;;;;;;;;21.28;28.61;98139.88;4844315;29;1005;-77
2022/07/12 07:58:05;;;;;;;;;;;;;;;21.20;28.66;98127.16;4844514;29;1020;-78
2022/07/12 08:00:30;;;;;;;;;;;;;;;21.25;28.58;98139.97;4843263;29;1029;-77
2022/07/12 08:02:56;;;;;;;;;;;;;;;21.18;28.97;98140.91;4844258;29;1102;-78
2022/07/12 08:05:21;;;;;;;;;;;;;;;21.26;28.56;98142.38;4825911;29;978;-78
2022/07/12 08:07:47;;;;;;;;;;;;;;;21.37;28.41;98142.16;4825820;29;1030;-78
2022/07/12 08:10:12;;;;;;;;;;;;;;;21.19;28.55;98142.53;4812431;29;950;-78
2022/07/12 08:12:38;;;;;;;;;;;;;;;21.10;28.77;98139.50;4821020;29;1986;-78
2022/07/12 08:15:03;;;;;;;;;;;;;;;21.59;28.10;98136.75;4825722;29;967;-78
2022/07/12 08:17:29;;;;;;;;;;;;;;;21.54;28.29;98123.13;4826013;29;944;-78
2022/07/12 08:19:55;;;;;;;;;;;;;;;21.45;28.47;98120.94;4812312;29;934;-78
2022/07/12 08:22:20;;;;;;;;;;;;;;;21.48;28.79;98119.25;4820723;29;955;-78
2022/07/12 08:24:46;;;;;;;;;;;;;;;21.40;28.91;98117.81;4789279;29;1170;-78
2022/07/12 08:27:11;;;;;;;;;;;;;;;21.29;29.11;98118.03;4789429;29;945;-78
2022/07/12 08:29:37;;;;;;;;;;;;;;;21.32;29.26;98106.66;4789522;29;1010;-78
2022/07/12 08:32:02;;;;;;;;;;;;;;;21.31;29.57;98113.56;4789478;29;1989;-78
2022/07/12 08:34:28;;;;;;;;;;;;;;;21.38;29.36;98109.75;4789655;29;995;-78
2022/07/12 08:36:53;;;;;;;;;;;;;;;21.22;29.73;98104.84;4766288;30;950;-78
2022/07/12 08:39:19;;;;;;;;;;;;;;;21.16;30.00;98108.66;4771311;30;1044;-77
2022/07/12 08:41:44;;;;;;;;;;;;;;;21.30;29.83;98126.13;4770864;30;936;-77
2022/07/12 08:44:10;;;;;;;;;;;;;;;21.20;29.54;98127.16;4771301;30;1032;-77
2022/07/12 08:46:35;;;;;;;;;;;;;;;21.12;29.97;98128.53;4771421;30;995;-78
2022/07/12 08:49:05;;;;;;;;;;;;;;;21.12;29.58;98122.88;4771080;30;1092;-77
2022/07/12 08:51:30;;;;;;;;;;;;;;;21.25;29.53;98128.66;4784685;30;946;-77
2022/07/12 08:54:05;;;;;;;;;;;;;;;21.47;29.05;98124.09;4788795;29;1974;-78
2022/07/12 08:56:34;;;;;;;;;;;;;;;21.29;29.13;98123.69;4789079;29;1028;-77
2022/07/12 08:59:09;;;;;;;;;;;;;;;21.36;28.81;98129.22;4788974;30;828;-77
2022/07/12 09:01:53;;;;;;;;;;;;;;;21.41;28.72;98114.56;4798158;29;931;-77
2022/07/12 09:04:24;;;;;;;;;;;;;;;21.31;28.97;98119.22;4825028;29;1610;-77
2022/07/12 09:06:50;;;;;;;;;;;;;;;21.36;28.69;98117.13;4829424;29;919;-77
2022/07/12 09:09:44;;;;;;;;;;;;;;;21.41;28.73;98119.41;4850780;29;1405;-77
2022/07/12 09:12:21;;;;;;;;;;;;;;;21.21;28.78;98117.41;4809886;29;1903;-77
2022/07/12 09:14:47;;;;;;;;;;;;;;;21.18;28.84;98118.28;4796388;29;1598;-77
2022/07/12 09:17:13;;;;;;;;;;;;;;;21.11;29.14;98123.31;4810570;29;977;-77
2022/07/12 09:19:38;;;;;;;;;;;;;;;21.12;28.81;98122.88;4810496;29;990;-77
2022/07/12 09:22:05;;;;;;;;;;;;;;;21.08;28.80;98119.31;4810656;29;1152;-77
2022/07/12 09:24:32;;;;;;;;;;;;;;;21.51;28.68;98124.03;4795810;29;977;-77
2022/07/12 09:27:02;;;;;;;;;;;;;;;21.66;28.65;98130.13;4810253;29;921;-77
2022/07/12 09:29:30;;;;;;;;;;;;;;;21.32;28.92;98114.38;4810302;29;1039;-77
2022/07/12 09:37:46;;;;;;;;;;;;;;;21.27;29.13;98121.31;4776935;30;1638;-78
2022/07/12 09:40:33;;;;;;;;;;;;;;;21.16;29.28;98122.81;4773980;30;969;-78
2022/07/12 09:43:18;;;;;;;;;;;;;;;21.41;28.66;98110.94;4743775;30;1236;-78
2022/07/12 09:45:47;;;;;;;;;;;;;;;21.27;29.17;98109.19;4756068;30;1075;-78
2022/07/12 09:48:32;;;;;;;;;;;;;;;21.23;28.77;98103.59;4756394;30;936;-78
2022/07/12 09:50:59;;;;;;;;;;;;;;;21.11;28.95;98101.47;4756190;30;1118;-78
2022/07/12 09:53:29;;;;;;;;;;;;;;;21.12;29.26;98108.72;4741765;30;2123;-78
2022/07/12 09:56:06;;;;;;;;;;;;;;;21.29;28.59;98107.50;4727968;30;934;-78
2022/07/12 09:59:12;;;;;;;;;;;;;;;21.23;28.79;98100.78;4708300;30;980;-78
2022/07/12 10:02:30;;;;;;;;;;;;;;;21.19;28.92;98100.09;4720677;30;1424;-78
2022/07/12 10:05:04;;;;;;;;;;;;;;;21.06;28.93;98104.81;4720897;30;999;-78
2022/07/12 10:07:34;;;;;;;;;;;;;;;21.04;28.93;98101.66;4721172;30;1553;-78
2022/07/12 10:10:05;;;;;;;;;;;;;;;20.89;29.29;98089.06;4677932;30;1261;-78
2022/07/12 10:12:56;;;;;;;;;;;;;;;21.18;28.65;98095.66;4720674;30;1907;-78
2022/07/12 10:15:25;;;;;;;;;;;;;;;21.12;29.13;98091.75;4724972;30;1797;-78
2022/07/12 10:18:00;;;;;;;;;;;;;;;21.15;28.67;98084.44;4720275;30;922;-78
2022/07/12 10:20:28;;;;;;;;;;;;;;;21.10;28.70;98082.91;4753415;30;971;-78
2022/07/12 10:23:00;;;;;;;;;;;;;;;21.30;28.62;98085.72;4754174;30;1570;-78
2022/07/12 10:25:33;;;;;;;;;;;;;;;21.06;28.92;98082.19;4740444;30;951;-78
2022/07/12 10:28:19;;;;;;;;;;;;;;;21.30;28.58;98078.03;4739248;30;887;-78
2022/07/12 10:30:50;;;;;;;;;;;;;;;21.92;28.11;98080.91;4720210;30;1500;-78
2022/07/12 10:33:36;;;;;;;;;;;;;;;21.61;28.50;98072.00;4729780;30;1940;-78
2022/07/12 10:36:07;;;;;;;;;;;;;;;21.51;28.73;98078.72;4752133;30;1494;-78
2022/07/12 10:38:34;;;;;;;;;;;;;;;21.27;28.80;98075.25;4773263;30;887;-78
2022/07/12 10:41:26;;;;;;;;;;;;;;;21.17;28.95;98070.63;4755568;30;1202;-78
2022/07/12 10:44:12;;;;;;;;;;;;;;;21.19;29.03;98065.31;4755028;30;1009;-78
2022/07/12 10:46:56;;;;;;;;;;;;;;;21.25;29.28;98081.34;4766020;30;1066;-78
2022/07/12 10:49:28;;;;;;;;;;;;;;;21.41;28.94;98079.78;4773227;30;1586;-77
2022/07/12 10:52:11;;;;;;;;;;;;;;;21.40;28.64;98081.00;4772813;30;1907;-78
2022/07/12 10:54:36;;;;;;;;;;;;;;;21.29;28.77;98073.53;4772905;30;1251;-78
2022/07/12 10:57:02;;;;;;;;;;;;;;;21.19;28.88;98068.97;4804097;29;973;-78
2022/07/12 10:59:27;;;;;;;;;;;;;;;21.22;28.94;98065.25;4772790;30;1014;-79
2022/07/12 11:01:54;;;;;;;;;;;;;;;21.32;28.68;98072.69;4790079;30;973;-78
2022/07/12 11:04:20;;;;;;;;;;;;;;;21.27;29.05;98064.72;4775707;30;1069;-78
2022/07/12 11:06:45;;;;;;;;;;;;;;;21.31;28.95;98068.28;4790488;30;938;-78
2022/07/12 11:09:11;;;;;;;;;;;;;;;21.42;28.52;98070.06;4790692;30;1016;-78
2022/07/12 11:11:44;;;;;;;;;;;;;;;21.26;28.82;98063.13;4775806;30;943;-78
2022/07/12 11:14:09;;;;;;;;;;;;;;;21.19;28.90;98062.47;4740939;30;1904;-78
2022/07/12 11:16:42;;;;;;;;;;;;;;;21.23;28.91;98069.66;4731238;30;989;-78
2022/07/12 11:19:07;;;;;;;;;;;;;;;21.19;29.03;98073.81;4719579;30;991;-77
2022/07/12 11:21:33;;;;;;;;;;;;;;;21.20;29.16;98067.72;4719573;30;909;-77
2022/07/12 11:23:58;;;;;;;;;;;;;;;21.00;29.30;98067.00;4736096;30;1017;-77
2022/07/12 11:26:24;;;;;;;;;;;;;;;21.25;28.84;98058.72;4754611;30;909;-78
2022/07/12 11:28:49;;;;;;;;;;;;;;;21.23;28.87;98064.00;4754262;30;949;-78
2022/07/12 11:31:15;;;;;;;;;;;;;;;21.58;28.71;98067.22;4740090;30;965;-78
2022/07/12 11:33:41;;;;;;;;;;;;;;;21.73;28.13;98067.66;4786973;29;1899;-78
2022/07/12 11:36:10;;;;;;;;;;;;;;;21.46;28.66;98065.91;4826492;29;964;-78
2022/07/12 11:38:40;;;;;;;;;;;;;;;21.38;28.83;98075.00;4826444;29;981;-78
2022/07/12 11:41:06;;;;;;;;;;;;;;;21.23;29.07;98066.03;4841295;29;940;-78
2022/07/12 11:43:32;;;;;;;;;;;;;;;21.38;28.98;98075.78;4826569;29;984;-78
2022/07/12 11:45:58;;;;;;;;;;;;;;;21.19;29.47;98068.97;4857288;29;986;-77
2022/07/12 11:48:23;;;;;;;;;;;;;;;21.38;28.97;98063.69;4844464;29;959;-78
2022/07/12 11:50:52;;;;;;;;;;;;;;;21.38;28.80;98075.00;4873491;29;897;-78
2022/07/12 11:53:21;;;;;;;;;;;;;;;21.26;29.01;98073.66;4847516;29;1977;-78
2022/07/12 11:55:47;;;;;;;;;;;;;;;21.33;28.87;98079.16;4844260;29;1015;-78
2022/07/12 11:58:13;;;;;;;;;;;;;;;21.19;29.00;98071.78;4859796;29;1129;-78
2022/07/12 12:00:38;;;;;;;;;;;;;;;21.15;29.31;98065.41;4825646;29;959;-78
2022/07/12 12:03:04;;;;;;;;;;;;;;;21.30;28.76;98075.19;4825688;29;1121;-78
2022/07/12 12:05:29;;;;;;;;;;;;;;;21.28;28.75;98071.94;4825723;29;997;-78
2022/07/12 12:07:55;;;;;;;;;;;;;;;21.29;29.03;98062.22;4825979;29;886;-78
2022/07/12 12:10:20;;;;;;;;;;;;;;;21.15;29.01;98068.25;4826248;29;953;-78
2022/07/12 12:12:50;;;;;;;;;;;;;;;21.32;28.91;98061.38;4825826;29;1911;-78
2022/07/12 12:15:16;;;;;;;;;;;;;;;21.01;29.46;98062.91;4825769;29;964;-78
2022/07/12 12:17:43;;;;;;;;;;;;;;;21.00;29.28;98061.34;4825571;29;1211;-78
2022/07/12 12:20:10;;;;;;;;;;;;;;;21.21;28.81;98060.81;4825911;29;1097;-78
2022/07/12 12:22:35;;;;;;;;;;;;;;;21.25;29.10;98060.75;4825641;29;1001;-78
2022/07/12 12:25:01;;;;;;;;;;;;;;;21.05;29.01;98063.63;4840665;29;1268;-78
2022/07/12 12:27:26;;;;;;;;;;;;;;;21.08;29.32;98071.22;4842673;29;1029;-77
2022/07/12 12:29:52;;;;;;;;;;;;;;;21.57;28.48;98045.81;4876364;29;915;-78
2022/07/12 12:32:17;;;;;;;;;;;;;;;21.61;28.52;98049.34;4849623;29;1914;-78
2022/07/12 12:35:03;;;;;;;;;;;;;;;21.46;28.78;98054.59;4846415;29;1037;-78
2022/07/12 12:37:28;;;;;;;;;;;;;;;21.38;28.99;98049.53;4866820;29;1050;-78
2022/07/12 12:39:54;;;;;;;;;;;;;;;21.24;29.06;98059.13;4880980;29;858;-78
2022/07/12 12:42:25;;;;;;;;;;;;;;;21.22;29.48;98062.41;4880969;29;931;-78
2022/07/12 12:44:51;;;;;;;;;;;;;;;21.04;29.43;98056.41;4880343;29;1005;-78
2022/07/12 12:47:31;;;;;;;;;;;;;;;21.25;29.47;98050.22;4834280;29;996;-79
2022/07/12 12:49:57;;;;;;;;;;;;;;;21.10;29.67;98051.78;4880693;29;895;-77
2022/07/12 12:52:23;;;;;;;;;;;;;;;21.12;29.51;98051.34;4880178;29;1902;-77
2022/07/12 12:54:48;;;;;;;;;;;;;;;21.25;29.14;98052.25;4874518;29;1138;-78
2022/07/12 12:57:14;;;;;;;;;;;;;;;21.03;29.57;98054.78;4870733;29;1249;-78
2022/07/12 12:59:39;;;;;;;;;;;;;;;20.98;29.82;98052.47;4862696;29;1384;-78
2022/07/12 13:02:05;;;;;;;;;;;;;;;21.14;29.10;98046.03;4869878;29;1229;-77
2022/07/12 13:04:34;;;;;;;;;;;;;;;21.17;29.25;98048.78;4871715;29;1269;-78
2022/07/12 13:07:00;;;;;;;;;;;;;;;21.27;28.97;98046.94;4884637;29;1018;-78
2022/07/12 13:09:26;;;;;;;;;;;;;;;21.11;29.17;98044.09;4884431;29;936;-78
2022/07/12 13:11:51;;;;;;;;;;;;;;;20.99;29.41;98048.44;4900966;29;917;-78
2022/07/12 13:14:16;;;;;;;;;;;;;;;21.50;28.92;98041.13;4884379;29;1986;-78
2022/07/12 13:16:42;;;;;;;;;;;;;;;21.65;28.57;98038.72;4884330;29;964;-78
2022/07/12 13:19:07;;;;;;;;;;;;;;;21.41;28.82;98052.28;4900990;29;942;-78